createdAt,value
2023-04-10T00:04:34.019Z,9.8
2023-04-10T00:19:33.956Z,9.7
2023-04-10T00:34:33.913Z,9.3
2023-04-10T00:49:33.908Z,9.1
2023-04-10T01:04:34.056Z,8.9
2023-04-10T01:19:33.905Z,8.7
2023-04-10T01:34:33.846Z,8.4
2023-04-10T01:49:33.813Z,8.3
2023-04-10T02:04:33.960Z,8.1
2023-04-10T02:19:33.821Z,7.8
2023-04-10T02:34:33.771Z,7.6
2023-04-10T02:49:33.802Z,7.4
2023-04-10T03:04:33.823Z,7.1
2023-04-10T03:19:33.740Z,7.2
2023-04-10T03:34:33.715Z,7
2023-04-10T03:49:33.697Z,7
2023-04-10T04:04:33.722Z,6.8
2023-04-10T04:19:33.702Z,6.9
2023-04-10T04:34:33.626Z,6.8
2023-04-10T04:49:33.680Z,6.9
2023-04-10T05:04:33.629Z,6.6
2023-04-10T05:19:33.638Z,6.5
2023-04-10T05:34:33.561Z,6.6
2023-04-10T05:49:33.564Z,8.5
2023-04-10T06:04:33.667Z,12
2023-04-10T06:19:33.549Z,13.1
2023-04-10T06:34:33.495Z,14.1
2023-04-10T06:49:33.530Z,14.6
2023-04-10T07:04:33.517Z,15.3
2023-04-10T07:19:33.445Z,14.7
2023-04-10T07:34:33.394Z,16.1
2023-04-10T07:49:33.424Z,17.6
2023-04-10T08:04:33.497Z,17.7
2023-04-10T08:19:33.385Z,19.3
2023-04-10T08:34:33.287Z,19.4
2023-04-10T08:49:33.335Z,19.4
2023-04-10T09:04:33.701Z,20.7
2023-04-10T09:19:33.282Z,21.1
2023-04-10T09:34:33.175Z,21.6
2023-04-10T09:49:33.218Z,22.4
2023-04-10T10:04:33.207Z,22
2023-04-10T10:19:33.156Z,20.1
2023-04-10T10:34:33.075Z,19.6
2023-04-10T10:49:33.094Z,20.4
2023-04-10T11:04:33.055Z,20.3
2023-04-10T11:19:33.052Z,21
2023-04-10T11:34:32.985Z,22
2023-04-10T11:49:33.030Z,22.2
2023-04-10T12:04:33.086Z,20.8
2023-04-10T12:19:32.947Z,20.3
2023-04-10T12:34:32.885Z,20.2
2023-04-10T12:49:32.890Z,20.4
2023-04-10T13:04:32.939Z,20.9
2023-04-10T13:19:32.840Z,20.8
2023-04-10T13:34:32.770Z,20.9
2023-04-10T13:49:32.777Z,20.9
2023-04-10T14:04:32.727Z,20.7
2023-04-10T14:19:32.720Z,20.7
2023-04-10T14:34:32.645Z,21
2023-04-10T14:49:32.631Z,21.3
2023-04-10T15:04:32.855Z,21.3
2023-04-10T15:19:32.629Z,21
2023-04-10T15:34:32.568Z,20.6
2023-04-10T15:49:37.770Z,20.3
2023-04-10T16:04:32.760Z,20.1
2023-04-10T16:19:32.444Z,20.1
2023-04-10T16:34:32.418Z,20
2023-04-10T16:49:32.444Z,19.9
2023-04-10T17:04:32.400Z,19.8
2023-04-10T17:19:32.385Z,19.5
2023-04-10T17:34:32.377Z,19.4
2023-04-10T17:49:32.310Z,19.3
2023-04-10T18:04:32.293Z,19.2
2023-04-10T18:19:32.350Z,19.2
2023-04-10T18:34:32.238Z,19
2023-04-10T18:49:32.276Z,19
2023-04-10T19:04:32.313Z,18.8
2023-04-10T19:19:32.213Z,18.4
2023-04-10T19:34:32.117Z,18.1
2023-04-10T19:49:33.148Z,18.2
2023-04-10T20:04:32.208Z,17.9
2023-04-10T20:19:32.101Z,17.7
2023-04-10T20:34:32.025Z,17.6
2023-04-10T20:49:32.065Z,17.1
2023-04-10T21:04:31.978Z,16.6
2023-04-10T21:19:31.982Z,16.3
2023-04-10T21:34:31.945Z,15.9
2023-04-10T21:49:31.967Z,15.8
2023-04-10T22:04:33.181Z,15.7
2023-04-10T22:19:31.904Z,15.5
2023-04-10T22:34:31.849Z,15.3
2023-04-10T22:49:31.861Z,15.1
2023-04-10T23:04:31.920Z,15
2023-04-10T23:19:31.793Z,14.8
2023-04-10T23:34:31.746Z,14.6
2023-04-10T23:49:31.755Z,14.4
